sensor_id;sensor_type;location;lat;lon;timestamp;P1;durP1;ratioP1;P2;durP2;ratioP2
27517;SDS011;14962;52.482;13.142;2022-08-24T00:02:00;4.90;;;2.90;;
27517;SDS011;14962;52.482;13.142;2022-08-24T00:04:26;6.20;;;3.05;;
27517;SDS011;14962;52.482;13.142;2022-08-24T00:06:52;6.35;;;3.10;;
27517;SDS011;14962;52.482;13.142;2022-08-24T00:09:18;4.55;;;2.97;;
27517;SDS011;14962;52.482;13.142;2022-08-24T00:11:44;10.45;;;2.85;;
27517;SDS011;14962;52.482;13.142;2022-08-24T00:14:11;8.70;;;2.88;;
27517;SDS011;14962;52.482;13.142;2022-08-24T00:16:37;4.22;;;2.80;;
27517;SDS011;14962;52.482;13.142;2022-08-24T00:19:03;8.60;;;3.22;;
27517;SDS011;14962;52.482;13.142;2022-08-24T00:21:29;6.55;;;2.85;;
27517;SDS011;14962;52.482;13.142;2022-08-24T00:23:55;7.53;;;3.47;;
27517;SDS011;14962;52.482;13.142;2022-08-24T00:26:21;5.63;;;2.50;;
27517;SDS011;14962;52.482;13.142;2022-08-24T00:28:47;4.32;;;3.15;;
27517;SDS011;14962;52.482;13.142;2022-08-24T00:31:13;5.70;;;3.00;;
27517;SDS011;14962;52.482;13.142;2022-08-24T00:33:39;9.93;;;3.42;;
27517;SDS011;14962;52.482;13.142;2022-08-24T00:36:05;3.65;;;2.53;;
27517;SDS011;14962;52.482;13.142;2022-08-24T00:38:32;6.00;;;3.20;;
27517;SDS011;14962;52.482;13.142;2022-08-24T00:40:59;4.43;;;3.08;;
27517;SDS011;14962;52.482;13.142;2022-08-24T00:43:26;6.00;;;3.13;;
27517;SDS011;14962;52.482;13.142;2022-08-24T00:48:33;4.60;;;2.60;;
27517;SDS011;14962;52.482;13.142;2022-08-24T00:51:02;8.07;;;2.97;;
27517;SDS011;14962;52.482;13.142;2022-08-24T00:53:34;7.32;;;3.45;;
27517;SDS011;14962;52.482;13.142;2022-08-24T00:56:03;4.35;;;3.42;;
27517;SDS011;14962;52.482;13.142;2022-08-24T00:58:33;6.60;;;3.13;;
27517;SDS011;14962;52.482;13.142;2022-08-24T01:01:01;8.50;;;3.50;;
27517;SDS011;14962;52.482;13.142;2022-08-24T01:03:27;5.50;;;3.28;;
27517;SDS011;14962;52.482;13.142;2022-08-24T01:05:54;5.43;;;3.08;;
27517;SDS011;14962;52.482;13.142;2022-08-24T01:08:20;5.97;;;3.10;;
27517;SDS011;14962;52.482;13.142;2022-08-24T01:10:48;8.25;;;3.15;;
27517;SDS011;14962;52.482;13.142;2022-08-24T01:13:15;5.80;;;3.58;;
27517;SDS011;14962;52.482;13.142;2022-08-24T01:15:43;6.43;;;3.70;;
27517;SDS011;14962;52.482;13.142;2022-08-24T01:18:11;6.05;;;3.38;;
27517;SDS011;14962;52.482;13.142;2022-08-24T01:21:02;7.18;;;3.00;;
27517;SDS011;14962;52.482;13.142;2022-08-24T01:25:56;7.90;;;3.22;;
27517;SDS011;14962;52.482;13.142;2022-08-24T01:28:22;6.03;;;3.22;;
27517;SDS011;14962;52.482;13.142;2022-08-24T01:30:48;4.95;;;3.08;;
27517;SDS011;14962;52.482;13.142;2022-08-24T01:33:21;4.72;;;2.83;;
27517;SDS011;14962;52.482;13.142;2022-08-24T01:35:49;8.20;;;2.97;;
27517;SDS011;14962;52.482;13.142;2022-08-24T01:38:15;4.70;;;2.88;;
27517;SDS011;14962;52.482;13.142;2022-08-24T01:40:43;4.90;;;3.38;;
27517;SDS011;14962;52.482;13.142;2022-08-24T01:43:11;7.53;;;3.10;;
27517;SDS011;14962;52.482;13.142;2022-08-24T01:45:39;6.65;;;3.28;;
27517;SDS011;14962;52.482;13.142;2022-08-24T01:48:05;5.75;;;3.40;;
27517;SDS011;14962;52.482;13.142;2022-08-24T01:50:31;7.43;;;3.40;;
27517;SDS011;14962;52.482;13.142;2022-08-24T01:52:58;5.57;;;3.03;;
27517;SDS011;14962;52.482;13.142;2022-08-24T01:55:26;6.53;;;3.20;;
27517;SDS011;14962;52.482;13.142;2022-08-24T01:57:52;4.45;;;3.20;;
27517;SDS011;14962;52.482;13.142;2022-08-24T02:00:18;7.40;;;3.50;;
27517;SDS011;14962;52.482;13.142;2022-08-24T02:02:44;5.47;;;2.53;;
27517;SDS011;14962;52.482;13.142;2022-08-24T02:05:11;5.93;;;2.70;;
27517;SDS011;14962;52.482;13.142;2022-08-24T02:07:37;4.75;;;2.88;;
27517;SDS011;14962;52.482;13.142;2022-08-24T02:10:04;4.88;;;2.60;;
27517;SDS011;14962;52.482;13.142;2022-08-24T02:12:31;4.15;;;2.92;;
27517;SDS011;14962;52.482;13.142;2022-08-24T02:14:57;4.28;;;2.85;;
27517;SDS011;14962;52.482;13.142;2022-08-24T02:17:24;6.75;;;2.95;;
27517;SDS011;14962;52.482;13.142;2022-08-24T02:19:50;6.20;;;2.78;;
27517;SDS011;14962;52.482;13.142;2022-08-24T02:22:16;7.00;;;3.72;;
27517;SDS011;14962;52.482;13.142;2022-08-24T02:24:42;7.45;;;3.42;;
27517;SDS011;14962;52.482;13.142;2022-08-24T02:27:08;7.05;;;3.22;;
27517;SDS011;14962;52.482;13.142;2022-08-24T02:29:34;5.47;;;3.47;;
27517;SDS011;14962;52.482;13.142;2022-08-24T02:32:00;4.68;;;3.22;;
27517;SDS011;14962;52.482;13.142;2022-08-24T02:34:26;4.22;;;3.25;;
27517;SDS011;14962;52.482;13.142;2022-08-24T02:36:52;6.13;;;3.00;;
27517;SDS011;14962;52.482;13.142;2022-08-24T02:39:18;6.32;;;3.15;;
27517;SDS011;14962;52.482;13.142;2022-08-24T02:41:44;9.20;;;3.90;;
27517;SDS011;14962;52.482;13.142;2022-08-24T02:44:10;6.75;;;3.53;;
27517;SDS011;14962;52.482;13.142;2022-08-24T02:46:36;5.75;;;3.70;;
27517;SDS011;14962;52.482;13.142;2022-08-24T02:49:03;7.00;;;3.60;;
27517;SDS011;14962;52.482;13.142;2022-08-24T02:51:30;8.80;;;4.45;;
27517;SDS011;14962;52.482;13.142;2022-08-24T02:54:00;6.85;;;4.55;;
27517;SDS011;14962;52.482;13.142;2022-08-24T02:56:26;7.43;;;4.35;;
27517;SDS011;14962;52.482;13.142;2022-08-24T02:58:56;7.22;;;4.63;;
27517;SDS011;14962;52.482;13.142;2022-08-24T03:01:22;11.80;;;6.18;;
27517;SDS011;14962;52.482;13.142;2022-08-24T03:03:48;14.25;;;7.55;;
27517;SDS011;14962;52.482;13.142;2022-08-24T03:06:14;15.02;;;6.38;;
27517;SDS011;14962;52.482;13.142;2022-08-24T03:08:41;10.60;;;6.22;;
27517;SDS011;14962;52.482;13.142;2022-08-24T03:11:08;10.57;;;7.22;;
27517;SDS011;14962;52.482;13.142;2022-08-24T03:13:35;11.35;;;7.00;;
27517;SDS011;14962;52.482;13.142;2022-08-24T03:16:01;15.05;;;8.35;;
27517;SDS011;14962;52.482;13.142;2022-08-24T03:18:27;13.40;;;6.28;;
27517;SDS011;14962;52.482;13.142;2022-08-24T03:20:54;12.65;;;5.38;;
27517;SDS011;14962;52.482;13.142;2022-08-24T03:23:20;6.75;;;4.53;;
27517;SDS011;14962;52.482;13.142;2022-08-24T03:25:47;10.85;;;5.30;;
27517;SDS011;14962;52.482;13.142;2022-08-24T03:28:13;9.73;;;4.55;;
27517;SDS011;14962;52.482;13.142;2022-08-24T03:30:39;9.00;;;4.70;;
27517;SDS011;14962;52.482;13.142;2022-08-24T03:33:07;8.45;;;4.75;;
27517;SDS011;14962;52.482;13.142;2022-08-24T03:35:33;12.10;;;6.18;;
27517;SDS011;14962;52.482;13.142;2022-08-24T03:37:59;7.13;;;4.57;;
27517;SDS011;14962;52.482;13.142;2022-08-24T03:40:26;8.18;;;5.03;;
27517;SDS011;14962;52.482;13.142;2022-08-24T03:42:52;6.95;;;3.90;;
27517;SDS011;14962;52.482;13.142;2022-08-24T03:45:19;7.55;;;4.93;;
27517;SDS011;14962;52.482;13.142;2022-08-24T03:47:45;11.95;;;4.78;;
27517;SDS011;14962;52.482;13.142;2022-08-24T03:50:12;5.05;;;4.22;;
27517;SDS011;14962;52.482;13.142;2022-08-24T03:52:38;8.43;;;4.28;;
27517;SDS011;14962;52.482;13.142;2022-08-24T03:55:06;13.32;;;5.00;;
27517;SDS011;14962;52.482;13.142;2022-08-24T03:57:32;15.63;;;5.75;;
27517;SDS011;14962;52.482;13.142;2022-08-24T03:59:59;22.27;;;6.53;;
27517;SDS011;14962;52.482;13.142;2022-08-24T04:02:25;18.70;;;7.25;;
27517;SDS011;14962;52.482;13.142;2022-08-24T04:04:51;20.50;;;7.95;;
27517;SDS011;14962;52.482;13.142;2022-08-24T04:07:17;22.85;;;9.23;;
27517;SDS011;14962;52.482;13.142;2022-08-24T04:09:43;24.08;;;8.75;;
27517;SDS011;14962;52.482;13.142;2022-08-24T04:12:09;25.65;;;9.85;;
27517;SDS011;14962;52.482;13.142;2022-08-24T04:14:35;21.58;;;9.15;;
27517;SDS011;14962;52.482;13.142;2022-08-24T04:17:02;23.80;;;9.63;;
27517;SDS011;14962;52.482;13.142;2022-08-24T04:19:28;27.77;;;10.68;;
27517;SDS011;14962;52.482;13.142;2022-08-24T04:21:54;28.60;;;10.57;;
27517;SDS011;14962;52.482;13.142;2022-08-24T04:24:23;21.00;;;8.55;;
27517;SDS011;14962;52.482;13.142;2022-08-24T04:26:49;27.23;;;9.60;;
27517;SDS011;14962;52.482;13.142;2022-08-24T04:29:16;21.67;;;9.38;;
27517;SDS011;14962;52.482;13.142;2022-08-24T04:31:43;24.73;;;10.43;;
27517;SDS011;14962;52.482;13.142;2022-08-24T04:34:09;27.00;;;10.35;;
27517;SDS011;14962;52.482;13.142;2022-08-24T04:36:36;22.50;;;10.15;;
27517;SDS011;14962;52.482;13.142;2022-08-24T04:39:04;22.45;;;9.00;;
27517;SDS011;14962;52.482;13.142;2022-08-24T04:41:30;27.73;;;10.88;;
27517;SDS011;14962;52.482;13.142;2022-08-24T04:43:55;22.40;;;10.02;;
27517;SDS011;14962;52.482;13.142;2022-08-24T04:46:23;20.23;;;9.90;;
27517;SDS011;14962;52.482;13.142;2022-08-24T04:48:49;25.98;;;10.80;;
27517;SDS011;14962;52.482;13.142;2022-08-24T04:51:15;27.75;;;11.45;;
27517;SDS011;14962;52.482;13.142;2022-08-24T04:53:42;22.38;;;10.18;;
27517;SDS011;14962;52.482;13.142;2022-08-24T04:56:08;21.90;;;9.65;;
27517;SDS011;14962;52.482;13.142;2022-08-24T04:58:35;21.65;;;9.68;;
27517;SDS011;14962;52.482;13.142;2022-08-24T05:01:05;20.75;;;9.57;;
27517;SDS011;14962;52.482;13.142;2022-08-24T05:03:31;17.02;;;8.57;;
27517;SDS011;14962;52.482;13.142;2022-08-24T05:05:57;18.27;;;8.18;;
27517;SDS011;14962;52.482;13.142;2022-08-24T05:08:23;18.92;;;8.60;;
27517;SDS011;14962;52.482;13.142;2022-08-24T05:10:49;20.42;;;8.60;;
27517;SDS011;14962;52.482;13.142;2022-08-24T05:13:15;24.08;;;9.60;;
27517;SDS011;14962;52.482;13.142;2022-08-24T05:15:43;23.25;;;9.65;;
27517;SDS011;14962;52.482;13.142;2022-08-24T05:18:10;23.48;;;10.52;;
27517;SDS011;14962;52.482;13.142;2022-08-24T05:20:45;23.83;;;10.00;;
27517;SDS011;14962;52.482;13.142;2022-08-24T05:23:11;27.33;;;9.90;;
27517;SDS011;14962;52.482;13.142;2022-08-24T05:25:38;20.42;;;9.50;;
27517;SDS011;14962;52.482;13.142;2022-08-24T05:28:05;24.33;;;10.88;;
27517;SDS011;14962;52.482;13.142;2022-08-24T05:30:31;20.55;;;9.75;;
27517;SDS011;14962;52.482;13.142;2022-08-24T05:32:57;18.02;;;9.20;;
27517;SDS011;14962;52.482;13.142;2022-08-24T05:35:23;25.33;;;10.98;;
27517;SDS011;14962;52.482;13.142;2022-08-24T05:37:49;18.73;;;9.80;;
27517;SDS011;14962;52.482;13.142;2022-08-24T05:40:16;26.52;;;10.30;;
27517;SDS011;14962;52.482;13.142;2022-08-24T05:42:43;21.50;;;9.85;;
27517;SDS011;14962;52.482;13.142;2022-08-24T05:45:09;19.90;;;10.25;;
27517;SDS011;14962;52.482;13.142;2022-08-24T05:47:35;22.80;;;10.60;;
27517;SDS011;14962;52.482;13.142;2022-08-24T05:50:01;16.90;;;9.15;;
27517;SDS011;14962;52.482;13.142;2022-08-24T05:52:27;23.60;;;10.65;;
27517;SDS011;14962;52.482;13.142;2022-08-24T05:54:54;20.60;;;10.85;;
27517;SDS011;14962;52.482;13.142;2022-08-24T05:57:22;23.60;;;11.07;;
27517;SDS011;14962;52.482;13.142;2022-08-24T05:59:48;26.08;;;11.95;;
27517;SDS011;14962;52.482;13.142;2022-08-24T06:02:15;24.75;;;11.13;;
27517;SDS011;14962;52.482;13.142;2022-08-24T06:04:41;21.10;;;10.15;;
27517;SDS011;14962;52.482;13.142;2022-08-24T06:07:07;16.65;;;9.80;;
27517;SDS011;14962;52.482;13.142;2022-08-24T06:09:34;17.75;;;9.70;;
27517;SDS011;14962;52.482;13.142;2022-08-24T06:12:00;21.23;;;9.82;;
27517;SDS011;14962;52.482;13.142;2022-08-24T06:14:26;22.35;;;10.85;;
27517;SDS011;14962;52.482;13.142;2022-08-24T06:16:52;18.25;;;10.38;;
27517;SDS011;14962;52.482;13.142;2022-08-24T06:19:18;17.20;;;9.00;;
27517;SDS011;14962;52.482;13.142;2022-08-24T06:21:46;18.48;;;9.88;;
27517;SDS011;14962;52.482;13.142;2022-08-24T06:24:12;19.92;;;10.27;;
27517;SDS011;14962;52.482;13.142;2022-08-24T06:26:42;16.85;;;9.73;;
27517;SDS011;14962;52.482;13.142;2022-08-24T06:29:26;22.15;;;11.00;;
27517;SDS011;14962;52.482;13.142;2022-08-24T06:31:52;20.60;;;10.15;;
27517;SDS011;14962;52.482;13.142;2022-08-24T06:34:18;20.02;;;9.60;;
27517;SDS011;14962;52.482;13.142;2022-08-24T06:36:44;17.58;;;10.35;;
27517;SDS011;14962;52.482;13.142;2022-08-24T06:39:11;21.02;;;11.15;;
27517;SDS011;14962;52.482;13.142;2022-08-24T06:41:38;16.08;;;9.18;;
27517;SDS011;14962;52.482;13.142;2022-08-24T06:44:04;20.23;;;9.98;;
27517;SDS011;14962;52.482;13.142;2022-08-24T06:46:31;20.33;;;10.95;;
27517;SDS011;14962;52.482;13.142;2022-08-24T06:48:57;20.30;;;10.25;;
27517;SDS011;14962;52.482;13.142;2022-08-24T06:51:24;21.65;;;11.40;;
27517;SDS011;14962;52.482;13.142;2022-08-24T06:53:50;24.05;;;11.43;;
27517;SDS011;14962;52.482;13.142;2022-08-24T06:56:16;19.30;;;9.88;;
27517;SDS011;14962;52.482;13.142;2022-08-24T06:58:43;27.27;;;11.35;;
27517;SDS011;14962;52.482;13.142;2022-08-24T07:01:13;23.05;;;11.30;;
27517;SDS011;14962;52.482;13.142;2022-08-24T07:03:40;30.27;;;13.48;;
27517;SDS011;14962;52.482;13.142;2022-08-24T07:06:06;26.75;;;12.65;;
27517;SDS011;14962;52.482;13.142;2022-08-24T07:08:32;27.05;;;11.82;;
27517;SDS011;14962;52.482;13.142;2022-08-24T07:10:58;29.20;;;12.82;;
27517;SDS011;14962;52.482;13.142;2022-08-24T07:13:25;27.58;;;12.02;;
27517;SDS011;14962;52.482;13.142;2022-08-24T07:15:51;26.67;;;11.40;;
27517;SDS011;14962;52.482;13.142;2022-08-24T07:18:17;27.77;;;11.65;;
27517;SDS011;14962;52.482;13.142;2022-08-24T07:20:43;29.65;;;11.98;;
27517;SDS011;14962;52.482;13.142;2022-08-24T07:23:10;33.38;;;12.02;;
27517;SDS011;14962;52.482;13.142;2022-08-24T07:25:38;23.02;;;11.55;;
27517;SDS011;14962;52.482;13.142;2022-08-24T07:28:04;22.25;;;10.45;;
27517;SDS011;14962;52.482;13.142;2022-08-24T07:30:30;23.60;;;11.50;;
27517;SDS011;14962;52.482;13.142;2022-08-24T07:32:56;25.52;;;12.10;;
27517;SDS011;14962;52.482;13.142;2022-08-24T07:35:23;22.23;;;11.52;;
27517;SDS011;14962;52.482;13.142;2022-08-24T07:37:49;22.83;;;12.20;;
27517;SDS011;14962;52.482;13.142;2022-08-24T07:40:15;28.00;;;13.95;;
27517;SDS011;14962;52.482;13.142;2022-08-24T07:42:42;26.50;;;14.45;;
27517;SDS011;14962;52.482;13.142;2022-08-24T07:45:11;26.02;;;13.93;;
27517;SDS011;14962;52.482;13.142;2022-08-24T07:47:37;25.23;;;12.40;;
27517;SDS011;14962;52.482;13.142;2022-08-24T07:50:03;23.17;;;13.20;;
27517;SDS011;14962;52.482;13.142;2022-08-24T07:52:30;25.00;;;12.93;;
27517;SDS011;14962;52.482;13.142;2022-08-24T07:54:56;25.00;;;12.57;;
27517;SDS011;14962;52.482;13.142;2022-08-24T07:57:22;24.45;;;12.20;;
27517;SDS011;14962;52.482;13.142;2022-08-24T07:59:48;23.23;;;11.05;;
27517;SDS011;14962;52.482;13.142;2022-08-24T08:02:14;26.27;;;12.90;;
27517;SDS011;14962;52.482;13.142;2022-08-24T08:04:41;26.30;;;11.63;;
27517;SDS011;14962;52.482;13.142;2022-08-24T08:07:07;20.67;;;10.95;;
27517;SDS011;14962;52.482;13.142;2022-08-24T08:09:35;17.92;;;10.38;;
27517;SDS011;14962;52.482;13.142;2022-08-24T08:12:01;25.17;;;11.32;;
27517;SDS011;14962;52.482;13.142;2022-08-24T08:14:27;19.13;;;10.90;;
27517;SDS011;14962;52.482;13.142;2022-08-24T08:16:53;19.88;;;10.40;;
27517;SDS011;14962;52.482;13.142;2022-08-24T08:19:19;19.65;;;10.77;;
27517;SDS011;14962;52.482;13.142;2022-08-24T08:21:48;22.33;;;10.40;;
27517;SDS011;14962;52.482;13.142;2022-08-24T08:24:33;21.42;;;10.20;;
27517;SDS011;14962;52.482;13.142;2022-08-24T08:26:59;21.40;;;10.50;;
27517;SDS011;14962;52.482;13.142;2022-08-24T08:29:25;17.45;;;9.93;;
27517;SDS011;14962;52.482;13.142;2022-08-24T08:31:51;16.23;;;10.05;;
27517;SDS011;14962;52.482;13.142;2022-08-24T08:34:17;22.63;;;11.15;;
27517;SDS011;14962;52.482;13.142;2022-08-24T08:36:43;28.05;;;11.57;;
27517;SDS011;14962;52.482;13.142;2022-08-24T08:39:10;16.13;;;9.38;;
27517;SDS011;14962;52.482;13.142;2022-08-24T08:44:34;17.48;;;9.40;;
27517;SDS011;14962;52.482;13.142;2022-08-24T08:47:07;19.35;;;9.93;;
27517;SDS011;14962;52.482;13.142;2022-08-24T08:49:41;15.02;;;9.38;;
27517;SDS011;14962;52.482;13.142;2022-08-24T08:52:25;16.23;;;9.27;;
27517;SDS011;14962;52.482;13.142;2022-08-24T08:54:58;18.70;;;10.85;;
27517;SDS011;14962;52.482;13.142;2022-08-24T09:02:28;16.42;;;9.57;;
27517;SDS011;14962;52.482;13.142;2022-08-24T09:05:01;15.93;;;8.80;;
27517;SDS011;14962;52.482;13.142;2022-08-24T09:07:40;15.82;;;9.55;;
27517;SDS011;14962;52.482;13.142;2022-08-24T09:10:20;15.27;;;8.13;;
27517;SDS011;14962;52.482;13.142;2022-08-24T09:15:24;15.60;;;8.55;;
27517;SDS011;14962;52.482;13.142;2022-08-24T09:18:04;16.58;;;7.97;;
27517;SDS011;14962;52.482;13.142;2022-08-24T09:23:11;12.25;;;7.53;;
27517;SDS011;14962;52.482;13.142;2022-08-24T09:25:44;15.15;;;7.78;;
27517;SDS011;14962;52.482;13.142;2022-08-24T09:28:29;14.13;;;8.00;;
27517;SDS011;14962;52.482;13.142;2022-08-24T09:36:28;14.50;;;7.93;;
27517;SDS011;14962;52.482;13.142;2022-08-24T09:39:04;10.48;;;6.97;;
27517;SDS011;14962;52.482;13.142;2022-08-24T09:47:03;13.02;;;7.28;;
27517;SDS011;14962;52.482;13.142;2022-08-24T09:52:30;15.13;;;7.22;;
27517;SDS011;14962;52.482;13.142;2022-08-24T09:54:57;12.10;;;7.20;;
27517;SDS011;14962;52.482;13.142;2022-08-24T09:57:27;16.60;;;8.35;;
27517;SDS011;14962;52.482;13.142;2022-08-24T10:07:49;13.27;;;6.85;;
27517;SDS011;14962;52.482;13.142;2022-08-24T10:15:22;13.55;;;6.65;;
27517;SDS011;14962;52.482;13.142;2022-08-24T10:20:53;12.68;;;7.10;;
27517;SDS011;14962;52.482;13.142;2022-08-24T10:23:37;14.65;;;7.45;;
27517;SDS011;14962;52.482;13.142;2022-08-24T10:26:29;16.98;;;7.97;;
27517;SDS011;14962;52.482;13.142;2022-08-24T10:29:04;14.98;;;7.30;;
27517;SDS011;14962;52.482;13.142;2022-08-24T10:31:34;11.32;;;6.60;;
27517;SDS011;14962;52.482;13.142;2022-08-24T10:36:37;10.80;;;6.80;;
27517;SDS011;14962;52.482;13.142;2022-08-24T10:39:11;14.80;;;7.07;;
27517;SDS011;14962;52.482;13.142;2022-08-24T10:44:42;11.02;;;6.88;;
27517;SDS011;14962;52.482;13.142;2022-08-24T10:47:10;11.80;;;6.45;;
27517;SDS011;14962;52.482;13.142;2022-08-24T10:52:32;13.18;;;7.30;;
27517;SDS011;14962;52.482;13.142;2022-08-24T10:55:14;11.18;;;6.60;;
27517;SDS011;14962;52.482;13.142;2022-08-24T10:57:54;9.02;;;6.35;;
27517;SDS011;14962;52.482;13.142;2022-08-24T11:00:25;11.27;;;6.25;;
27517;SDS011;14962;52.482;13.142;2022-08-24T11:03:04;11.32;;;5.90;;
27517;SDS011;14962;52.482;13.142;2022-08-24T11:05:33;9.80;;;6.30;;
27517;SDS011;14962;52.482;13.142;2022-08-24T11:08:04;12.35;;;6.15;;
27517;SDS011;14962;52.482;13.142;2022-08-24T11:10:35;12.48;;;6.90;;
27517;SDS011;14962;52.482;13.142;2022-08-24T11:15:46;11.65;;;6.10;;
27517;SDS011;14962;52.482;13.142;2022-08-24T11:18:13;14.40;;;7.95;;
27517;SDS011;14962;52.482;13.142;2022-08-24T11:20:40;13.32;;;6.93;;
27517;SDS011;14962;52.482;13.142;2022-08-24T11:23:07;14.13;;;7.00;;
27517;SDS011;14962;52.482;13.142;2022-08-24T11:25:35;13.38;;;6.40;;
27517;SDS011;14962;52.482;13.142;2022-08-24T11:28:03;15.98;;;6.95;;
27517;SDS011;14962;52.482;13.142;2022-08-24T11:30:30;11.10;;;6.35;;
27517;SDS011;14962;52.482;13.142;2022-08-24T11:32:57;14.05;;;7.00;;
27517;SDS011;14962;52.482;13.142;2022-08-24T11:37:54;10.32;;;6.45;;
27517;SDS011;14962;52.482;13.142;2022-08-24T11:40:24;12.85;;;7.15;;
27517;SDS011;14962;52.482;13.142;2022-08-24T11:47:51;11.02;;;6.82;;
27517;SDS011;14962;52.482;13.142;2022-08-24T11:50:22;11.05;;;6.00;;
27517;SDS011;14962;52.482;13.142;2022-08-24T11:53:35;12.20;;;6.38;;
27517;SDS011;14962;52.482;13.142;2022-08-24T11:55:42;12.15;;;6.13;;
27517;SDS011;14962;52.482;13.142;2022-08-24T11:58:31;13.93;;;5.63;;
27517;SDS011;14962;52.482;13.142;2022-08-24T12:01:13;13.05;;;5.63;;
27517;SDS011;14962;52.482;13.142;2022-08-24T12:03:42;12.85;;;4.70;;
27517;SDS011;14962;52.482;13.142;2022-08-24T12:09:22;10.07;;;3.80;;
27517;SDS011;14962;52.482;13.142;2022-08-24T12:14:46;8.82;;;4.00;;
27517;SDS011;14962;52.482;13.142;2022-08-24T12:17:22;9.23;;;4.28;;
27517;SDS011;14962;52.482;13.142;2022-08-24T12:19:54;7.15;;;3.88;;
27517;SDS011;14962;52.482;13.142;2022-08-24T12:22:21;10.95;;;4.47;;
27517;SDS011;14962;52.482;13.142;2022-08-24T12:24:51;9.15;;;4.38;;
27517;SDS011;14962;52.482;13.142;2022-08-24T12:27:26;9.15;;;4.07;;
27517;SDS011;14962;52.482;13.142;2022-08-24T12:29:58;6.28;;;3.72;;
27517;SDS011;14962;52.482;13.142;2022-08-24T12:32:30;8.07;;;3.88;;
27517;SDS011;14962;52.482;13.142;2022-08-24T12:35:05;8.63;;;4.35;;
27517;SDS011;14962;52.482;13.142;2022-08-24T12:37:41;9.70;;;4.18;;
27517;SDS011;14962;52.482;13.142;2022-08-24T12:45:25;10.95;;;3.28;;
27517;SDS011;14962;52.482;13.142;2022-08-24T12:48:27;10.63;;;3.75;;
27517;SDS011;14962;52.482;13.142;2022-08-24T12:53:47;7.80;;;3.22;;
27517;SDS011;14962;52.482;13.142;2022-08-24T12:56:19;10.57;;;3.53;;
27517;SDS011;14962;52.482;13.142;2022-08-24T12:58:54;9.52;;;3.42;;
27517;SDS011;14962;52.482;13.142;2022-08-24T13:04:01;7.53;;;2.80;;
27517;SDS011;14962;52.482;13.142;2022-08-24T13:06:39;8.23;;;3.30;;
27517;SDS011;14962;52.482;13.142;2022-08-24T13:09:08;8.38;;;3.33;;
27517;SDS011;14962;52.482;13.142;2022-08-24T13:11:36;8.55;;;3.53;;
27517;SDS011;14962;52.482;13.142;2022-08-24T13:19:17;6.63;;;2.95;;
27517;SDS011;14962;52.482;13.142;2022-08-24T13:24:40;5.40;;;3.10;;
27517;SDS011;14962;52.482;13.142;2022-08-24T13:29:40;5.00;;;3.17;;
27517;SDS011;14962;52.482;13.142;2022-08-24T13:32:07;9.07;;;3.47;;
27517;SDS011;14962;52.482;13.142;2022-08-24T13:34:41;13.13;;;3.90;;
27517;SDS011;14962;52.482;13.142;2022-08-24T13:37:15;7.65;;;3.55;;
27517;SDS011;14962;52.482;13.142;2022-08-24T13:42:17;5.25;;;3.33;;
27517;SDS011;14962;52.482;13.142;2022-08-24T13:47:20;7.72;;;3.70;;
27517;SDS011;14962;52.482;13.142;2022-08-24T13:58:05;6.72;;;3.45;;
27517;SDS011;14962;52.482;13.142;2022-08-24T14:00:42;5.10;;;2.90;;
27517;SDS011;14962;52.482;13.142;2022-08-24T14:03:23;12.13;;;3.70;;
27517;SDS011;14962;52.482;13.142;2022-08-24T14:05:52;7.27;;;3.20;;
27517;SDS011;14962;52.482;13.142;2022-08-24T14:08:25;8.68;;;3.45;;
27517;SDS011;14962;52.482;13.142;2022-08-24T14:16:22;5.45;;;2.55;;
27517;SDS011;14962;52.482;13.142;2022-08-24T14:19:30;7.10;;;2.70;;
27517;SDS011;14962;52.482;13.142;2022-08-24T14:33:07;4.88;;;2.75;;
27517;SDS011;14962;52.482;13.142;2022-08-24T14:35:38;6.38;;;2.70;;
27517;SDS011;14962;52.482;13.142;2022-08-24T14:41:02;8.88;;;3.30;;
27517;SDS011;14962;52.482;13.142;2022-08-24T14:43:34;4.63;;;2.33;;
27517;SDS011;14962;52.482;13.142;2022-08-24T14:46:10;7.30;;;2.78;;
27517;SDS011;14962;52.482;13.142;2022-08-24T14:48:45;3.70;;;2.30;;
27517;SDS011;14962;52.482;13.142;2022-08-24T14:59:13;7.40;;;2.72;;
27517;SDS011;14962;52.482;13.142;2022-08-24T15:01:43;9.75;;;3.10;;
27517;SDS011;14962;52.482;13.142;2022-08-24T15:04:59;4.85;;;3.00;;
27517;SDS011;14962;52.482;13.142;2022-08-24T15:07:06;5.50;;;2.80;;
27517;SDS011;14962;52.482;13.142;2022-08-24T15:09:43;5.35;;;3.17;;
27517;SDS011;14962;52.482;13.142;2022-08-24T15:12:19;8.73;;;2.72;;
27517;SDS011;14962;52.482;13.142;2022-08-24T15:14:50;6.60;;;2.85;;
27517;SDS011;14962;52.482;13.142;2022-08-24T15:17:22;5.93;;;2.67;;
27517;SDS011;14962;52.482;13.142;2022-08-24T15:19:50;6.10;;;3.35;;
27517;SDS011;14962;52.482;13.142;2022-08-24T15:22:24;6.65;;;3.33;;
27517;SDS011;14962;52.482;13.142;2022-08-24T15:24:53;6.47;;;3.20;;
27517;SDS011;14962;52.482;13.142;2022-08-24T15:27:29;7.18;;;3.42;;
27517;SDS011;14962;52.482;13.142;2022-08-24T15:30:00;9.60;;;3.75;;
27517;SDS011;14962;52.482;13.142;2022-08-24T15:32:41;15.07;;;3.58;;
27517;SDS011;14962;52.482;13.142;2022-08-24T15:35:20;8.98;;;3.95;;
27517;SDS011;14962;52.482;13.142;2022-08-24T15:37:46;6.15;;;4.07;;
27517;SDS011;14962;52.482;13.142;2022-08-24T15:40:30;10.75;;;4.43;;
27517;SDS011;14962;52.482;13.142;2022-08-24T15:42:57;8.68;;;3.95;;
27517;SDS011;14962;52.482;13.142;2022-08-24T15:45:25;9.10;;;4.63;;
27517;SDS011;14962;52.482;13.142;2022-08-24T15:47:52;6.10;;;4.20;;
27517;SDS011;14962;52.482;13.142;2022-08-24T15:50:29;10.80;;;4.97;;
27517;SDS011;14962;52.482;13.142;2022-08-24T15:53:00;11.43;;;4.43;;
27517;SDS011;14962;52.482;13.142;2022-08-24T15:58:19;9.73;;;4.57;;
27517;SDS011;14962;52.482;13.142;2022-08-24T16:00:46;11.43;;;5.03;;
27517;SDS011;14962;52.482;13.142;2022-08-24T16:09:10;9.20;;;4.38;;
27517;SDS011;14962;52.482;13.142;2022-08-24T16:11:38;8.80;;;3.97;;
27517;SDS011;14962;52.482;13.142;2022-08-24T16:16:50;7.88;;;4.50;;
27517;SDS011;14962;52.482;13.142;2022-08-24T16:19:18;6.47;;;4.53;;
27517;SDS011;14962;52.482;13.142;2022-08-24T16:21:56;10.07;;;4.35;;
27517;SDS011;14962;52.482;13.142;2022-08-24T16:24:25;7.90;;;4.30;;
27517;SDS011;14962;52.482;13.142;2022-08-24T16:26:55;9.38;;;4.07;;
27517;SDS011;14962;52.482;13.142;2022-08-24T16:32:13;10.60;;;4.18;;
27517;SDS011;14962;52.482;13.142;2022-08-24T16:34:43;7.68;;;4.00;;
27517;SDS011;14962;52.482;13.142;2022-08-24T16:37:11;10.18;;;3.85;;
27517;SDS011;14962;52.482;13.142;2022-08-24T16:39:37;10.88;;;4.95;;
27517;SDS011;14962;52.482;13.142;2022-08-24T16:42:04;7.78;;;4.40;;
27517;SDS011;14962;52.482;13.142;2022-08-24T16:44:37;8.02;;;4.47;;
27517;SDS011;14962;52.482;13.142;2022-08-24T16:49:30;12.77;;;4.47;;
27517;SDS011;14962;52.482;13.142;2022-08-24T16:51:57;13.43;;;4.90;;
27517;SDS011;14962;52.482;13.142;2022-08-24T16:54:23;11.43;;;4.18;;
27517;SDS011;14962;52.482;13.142;2022-08-24T16:56:50;6.00;;;3.90;;
27517;SDS011;14962;52.482;13.142;2022-08-24T16:59:18;8.57;;;4.63;;
27517;SDS011;14962;52.482;13.142;2022-08-24T17:01:45;8.48;;;3.75;;
27517;SDS011;14962;52.482;13.142;2022-08-24T17:04:13;9.23;;;3.80;;
27517;SDS011;14962;52.482;13.142;2022-08-24T17:06:39;7.78;;;4.25;;